createdAt,value
2018-07-04T00:03:01.280Z,2.57
2018-07-04T00:05:41.901Z,2.90
2018-07-04T00:08:22.377Z,2.83
2018-07-04T00:11:02.884Z,3.33
2018-07-04T00:13:43.539Z,2.53
2018-07-04T00:16:24.222Z,2.60
2018-07-04T00:19:04.767Z,2.10
2018-07-04T00:21:45.184Z,2.80
2018-07-04T00:24:25.611Z,3.00
2018-07-04T00:27:06.113Z,3.00
2018-07-04T00:29:46.536Z,2.73
2018-07-04T00:32:26.996Z,2.80
2018-07-04T00:35:07.656Z,2.73
2018-07-04T00:37:48.264Z,3.70
2018-07-04T00:40:28.747Z,3.00
2018-07-04T00:43:09.237Z,2.90
2018-07-04T00:45:49.887Z,2.57
2018-07-04T00:48:30.515Z,2.10
2018-07-04T00:51:11.020Z,2.60
2018-07-04T00:53:51.581Z,2.77
2018-07-04T00:56:32.095Z,2.80
2018-07-04T00:59:12.578Z,2.30
2018-07-04T01:01:53.241Z,3.00
2018-07-04T01:04:33.968Z,2.30
2018-07-04T01:07:14.538Z,2.43
2018-07-04T01:09:55.600Z,2.17
2018-07-04T01:12:36.285Z,2.60
2018-07-04T01:15:16.802Z,2.40
2018-07-04T01:17:57.294Z,2.90
2018-07-04T01:20:43.842Z,2.87
2018-07-04T01:23:24.828Z,3.37
2018-07-04T01:26:05.290Z,2.57
2018-07-04T01:28:49.753Z,2.50
2018-07-04T01:31:30.350Z,2.40
2018-07-04T01:34:11.180Z,2.43
2018-07-04T01:36:52.150Z,2.97
2018-07-04T01:39:32.873Z,3.80
2018-07-04T01:42:13.390Z,2.23
2018-07-04T01:44:57.765Z,2.43
2018-07-04T01:47:38.397Z,2.30
2018-07-04T01:50:22.001Z,2.50
2018-07-04T01:53:02.482Z,3.10
2018-07-04T01:55:43.284Z,3.10
2018-07-04T01:58:24.069Z,2.67
2018-07-04T02:01:04.770Z,3.07
2018-07-04T02:03:45.169Z,3.33
2018-07-04T02:06:25.777Z,4.43
2018-07-04T02:09:06.345Z,3.30
2018-07-04T02:11:46.801Z,3.37
2018-07-04T02:14:27.309Z,3.03
2018-07-04T02:17:08.025Z,3.40
2018-07-04T02:19:48.922Z,3.17
2018-07-04T02:22:29.553Z,3.60
2018-07-04T02:25:10.009Z,3.23
2018-07-04T02:27:57.051Z,4.30
2018-07-04T02:30:39.155Z,3.37
2018-07-04T02:33:20.437Z,3.50
2018-07-04T02:36:03.232Z,3.97
2018-07-04T02:38:44.795Z,4.00
2018-07-04T02:41:25.561Z,3.83
2018-07-04T02:44:06.063Z,3.33
2018-07-04T02:46:46.919Z,3.23
2018-07-04T02:49:27.663Z,3.60
2018-07-04T02:52:02.498Z,3.90
2018-07-04T02:54:43.241Z,4.53
2018-07-04T02:57:24.012Z,3.60
2018-07-04T03:00:04.744Z,4.83
2018-07-04T03:02:39.626Z,3.63
2018-07-04T03:05:20.053Z,3.50
2018-07-04T03:08:01.262Z,3.20
2018-07-04T03:10:41.842Z,3.50
2018-07-04T03:13:22.570Z,3.40
2018-07-04T03:16:04.970Z,4.00
2018-07-04T03:18:45.910Z,3.63
2018-07-04T03:21:26.880Z,4.80
2018-07-04T03:24:07.449Z,4.30
2018-07-04T03:26:48.429Z,3.50
2018-07-04T03:29:29.163Z,4.40
2018-07-04T03:32:09.843Z,4.60
2018-07-04T03:34:50.545Z,4.00
2018-07-04T03:37:31.040Z,3.93
2018-07-04T03:40:11.738Z,4.60
2018-07-04T03:42:52.242Z,4.17
2018-07-04T03:45:33.106Z,4.30
2018-07-04T03:48:13.665Z,5.00
2018-07-04T03:50:54.189Z,4.20
2018-07-04T03:53:34.588Z,5.40
2018-07-04T03:56:09.049Z,4.80
2018-07-04T03:58:49.440Z,5.00
2018-07-04T04:01:29.973Z,4.43
2018-07-04T04:04:10.477Z,4.73
2018-07-04T04:06:51.153Z,4.10
2018-07-04T04:09:31.717Z,5.40
2018-07-04T04:12:12.207Z,4.80
2018-07-04T04:14:52.857Z,4.20
2018-07-04T04:17:33.841Z,6.00
2018-07-04T04:23:13.757Z,5.80
2018-07-04T04:25:54.323Z,5.43
2018-07-04T04:28:34.840Z,7.23
2018-07-04T04:31:15.335Z,8.23
2018-07-04T04:33:55.883Z,8.90
2018-07-04T04:36:36.534Z,8.17
2018-07-04T04:39:17.086Z,7.70
2018-07-04T04:41:57.585Z,8.23
2018-07-04T04:44:38.278Z,7.07
2018-07-04T04:47:18.749Z,6.97
2018-07-04T04:49:59.504Z,7.80
2018-07-04T04:52:40.380Z,7.37
2018-07-04T04:55:21.362Z,5.83
2018-07-04T04:58:02.283Z,6.17
2018-07-04T05:00:42.985Z,5.97
2018-07-04T05:03:23.681Z,5.97
2018-07-04T05:06:04.869Z,5.93
2018-07-04T05:08:45.755Z,5.07
2018-07-04T05:11:26.405Z,5.90
2018-07-04T05:14:07.230Z,4.90
2018-07-04T05:16:48.066Z,6.60
2018-07-04T05:19:28.637Z,5.10
2018-07-04T05:22:09.241Z,5.20
2018-07-04T05:24:50.655Z,6.03
2018-07-04T05:27:31.541Z,4.60
2018-07-04T05:30:12.107Z,4.53
2018-07-04T05:32:52.704Z,4.23
2018-07-04T05:35:33.277Z,4.17
2018-07-04T05:38:13.919Z,4.00
2018-07-04T05:40:54.384Z,4.23
2018-07-04T05:43:34.960Z,3.87
2018-07-04T05:46:15.573Z,3.33
2018-07-04T05:48:56.081Z,3.17
2018-07-04T05:51:36.686Z,2.90
2018-07-04T05:54:17.533Z,3.17
2018-07-04T05:56:58.161Z,2.70
2018-07-04T05:59:41.344Z,2.50
2018-07-04T06:02:22.446Z,2.10
2018-07-04T06:05:02.940Z,2.27
2018-07-04T06:07:43.631Z,2.97
2018-07-04T06:10:24.327Z,2.77
2018-07-04T06:13:07.244Z,2.83
2018-07-04T06:15:48.152Z,2.20
2018-07-04T06:18:29.398Z,1.80
2018-07-04T06:21:12.515Z,2.30
2018-07-04T06:23:54.021Z,2.70
2018-07-04T06:26:34.479Z,2.30
2018-07-04T06:29:15.089Z,2.30
2018-07-04T06:31:55.649Z,2.37
2018-07-04T06:34:36.168Z,2.03
2018-07-04T06:37:16.657Z,2.90
2018-07-04T06:39:44.894Z,2.60
2018-07-04T06:42:13.109Z,2.33
2018-07-04T06:44:41.310Z,2.47
2018-07-04T06:47:09.591Z,2.83
2018-07-04T06:49:37.820Z,2.47
2018-07-04T06:52:06.144Z,2.43
2018-07-04T06:54:34.393Z,1.83
2018-07-04T06:57:02.630Z,2.30
2018-07-04T06:59:30.903Z,2.50
2018-07-04T07:02:24.375Z,2.10
2018-07-04T07:05:05.373Z,2.40
2018-07-04T07:07:46.660Z,1.60
2018-07-04T07:10:27.224Z,2.60
2018-07-04T07:13:07.719Z,2.57
2018-07-04T07:15:48.186Z,2.00
2018-07-04T07:18:28.602Z,1.67
2018-07-04T07:21:09.079Z,2.00
2018-07-04T07:23:49.678Z,2.10
2018-07-04T07:26:30.317Z,1.97
2018-07-04T07:29:10.959Z,1.83
2018-07-04T07:31:51.554Z,1.90
2018-07-04T07:34:32.869Z,1.70
2018-07-04T07:37:14.039Z,2.20
2018-07-04T07:39:54.847Z,1.80
2018-07-04T07:42:35.663Z,2.13
2018-07-04T07:45:16.540Z,1.97
2018-07-04T07:47:57.289Z,1.40
2018-07-04T07:50:37.904Z,1.40
2018-07-04T07:53:20.238Z,1.77
2018-07-04T07:56:00.727Z,1.53
2018-07-04T07:58:41.587Z,1.40
2018-07-04T08:01:22.247Z,1.60
2018-07-04T08:04:02.714Z,1.40
2018-07-04T08:06:43.696Z,1.40
2018-07-04T08:09:24.253Z,2.27
2018-07-04T08:18:03.509Z,1.33
2018-07-04T08:20:44.058Z,1.23
2018-07-04T08:23:24.575Z,1.70
2018-07-04T08:26:05.155Z,1.30
2018-07-04T08:28:45.619Z,1.20
2018-07-04T08:31:26.435Z,1.53
2018-07-04T08:34:07.333Z,1.07
2018-07-04T08:36:47.987Z,1.30
2018-07-04T08:39:28.526Z,1.37
2018-07-04T08:42:09.378Z,1.17
2018-07-04T08:44:50.205Z,0.80
2018-07-04T08:47:30.899Z,1.20
2018-07-04T08:50:11.479Z,1.20
2018-07-04T08:52:52.070Z,0.93
2018-07-04T08:55:32.602Z,1.23
2018-07-04T08:58:13.314Z,1.10
2018-07-04T09:00:54.100Z,0.90
2018-07-04T09:03:34.563Z,1.00
2018-07-04T09:06:15.067Z,0.90
2018-07-04T09:08:55.600Z,0.90
2018-07-04T09:11:36.115Z,0.80
2018-07-04T09:14:10.857Z,0.70
2018-07-04T09:16:51.918Z,0.87
2018-07-04T09:19:32.374Z,0.73
2018-07-04T09:22:12.899Z,0.97
2018-07-04T09:24:53.378Z,0.60
2018-07-04T09:27:33.971Z,0.80
2018-07-04T09:30:14.553Z,0.80
2018-07-04T09:32:55.128Z,0.73
2018-07-04T09:35:35.656Z,0.63
2018-07-04T09:38:16.232Z,0.70
2018-07-04T09:40:57.607Z,0.60
2018-07-04T09:43:38.390Z,1.17
2018-07-04T09:46:19.592Z,0.90
2018-07-04T09:49:00.342Z,0.70
2018-07-04T09:51:40.981Z,0.70
2018-07-04T09:54:21.467Z,0.63
2018-07-04T09:57:02.082Z,0.50
2018-07-04T09:59:42.927Z,0.60
2018-07-04T10:02:23.607Z,0.70
2018-07-04T10:05:04.117Z,0.60
2018-07-04T10:07:44.618Z,0.80
2018-07-04T10:10:25.238Z,0.60
2018-07-04T10:13:06.628Z,0.67
2018-07-04T10:15:47.231Z,0.60
2018-07-04T10:18:27.885Z,0.70
2018-07-04T10:21:08.389Z,0.70
2018-07-04T10:23:48.957Z,0.60
2018-07-04T10:26:29.674Z,0.53
2018-07-04T10:29:10.687Z,0.60
2018-07-04T10:31:51.190Z,0.63
2018-07-04T10:34:31.662Z,0.50
2018-07-04T10:37:12.378Z,0.50
2018-07-04T10:39:52.889Z,0.60
2018-07-04T10:42:35.185Z,0.60
2018-07-04T10:45:18.879Z,0.47
2018-07-04T10:48:01.458Z,0.63
2018-07-04T10:50:44.061Z,0.50
2018-07-04T10:53:24.892Z,0.70
2018-07-04T10:56:05.397Z,0.60
2018-07-04T10:58:45.986Z,0.50
2018-07-04T11:01:26.527Z,0.50
2018-07-04T11:04:07.138Z,0.60
2018-07-04T11:06:47.957Z,0.60
2018-07-04T11:09:28.540Z,0.60
2018-07-04T11:12:09.033Z,0.60
2018-07-04T11:14:49.699Z,0.53
2018-07-04T11:17:30.553Z,0.60
2018-07-04T11:20:11.081Z,0.60
2018-07-04T11:22:51.772Z,0.50
2018-07-04T11:25:32.352Z,0.50
2018-07-04T11:28:13.053Z,0.60
2018-07-04T11:30:53.964Z,0.50
2018-07-04T11:33:34.816Z,0.53
2018-07-04T11:36:15.266Z,0.70
2018-07-04T11:38:55.970Z,0.47
2018-07-04T11:41:36.547Z,0.60
2018-07-04T11:44:17.219Z,0.50
2018-07-04T11:46:45.640Z,0.60
2018-07-04T11:49:13.880Z,0.50
2018-07-04T11:51:42.113Z,0.50
2018-07-04T11:54:10.342Z,0.60
2018-07-04T11:56:38.700Z,0.60
2018-07-04T11:59:07.069Z,0.50
2018-07-04T12:01:35.358Z,0.63
2018-07-04T12:04:16.787Z,0.50
2018-07-04T12:06:57.367Z,0.50
2018-07-04T12:09:25.650Z,0.50
2018-07-04T12:11:53.865Z,0.50
2018-07-04T12:14:22.126Z,0.60
2018-07-04T12:16:50.560Z,0.53
2018-07-04T12:19:18.786Z,0.60
2018-07-04T12:21:47.022Z,0.50
2018-07-04T12:24:15.329Z,0.50
2018-07-04T12:26:43.748Z,0.70
2018-07-04T12:29:12.397Z,0.50
2018-07-04T12:31:41.271Z,0.50
2018-07-04T12:34:09.507Z,0.50
2018-07-04T12:36:38.501Z,0.60
2018-07-04T12:39:06.771Z,0.60
2018-07-04T12:41:35.182Z,0.70
2018-07-04T12:44:03.427Z,0.60
2018-07-04T12:46:31.678Z,0.60
2018-07-04T12:49:03.087Z,0.60
2018-07-04T12:51:33.711Z,0.50
2018-07-04T12:54:07.282Z,0.70
2018-07-04T12:56:47.826Z,0.90
2018-07-04T12:59:28.529Z,0.63
2018-07-04T13:02:09.207Z,0.63
2018-07-04T13:04:49.855Z,0.60
2018-07-04T13:07:30.501Z,0.70
2018-07-04T13:10:11.239Z,0.70
2018-07-04T13:12:51.800Z,0.60
2018-07-04T13:15:32.455Z,0.60
2018-07-04T13:18:13.125Z,0.60
2018-07-04T13:20:53.631Z,0.80
2018-07-04T13:23:34.352Z,0.60
2018-07-04T13:26:15.058Z,0.60
2018-07-04T13:28:49.674Z,0.70
2018-07-04T13:31:30.274Z,0.80
2018-07-04T13:34:11.100Z,0.60
2018-07-04T13:36:51.752Z,0.70
2018-07-04T13:39:32.600Z,0.60
2018-07-04T13:42:13.495Z,0.70
2018-07-04T13:44:54.352Z,0.70
2018-07-04T13:47:35.199Z,0.70
2018-07-04T13:50:16.593Z,0.70
2018-07-04T13:52:57.477Z,0.60
2018-07-04T13:55:38.321Z,0.73
2018-07-04T13:58:18.999Z,0.60
2018-07-04T14:00:59.722Z,0.60
2018-07-04T14:03:40.802Z,0.60
2018-07-04T14:06:21.599Z,0.70
2018-07-04T14:09:02.440Z,0.70
2018-07-04T14:11:42.963Z,0.50
2018-07-04T14:14:24.076Z,0.60
2018-07-04T14:17:04.596Z,0.80
2018-07-04T14:19:45.295Z,0.80
2018-07-04T14:22:25.774Z,0.70
2018-07-04T14:25:06.481Z,0.70
2018-07-04T14:27:47.356Z,0.70
2018-07-04T14:30:28.104Z,0.70
2018-07-04T14:33:08.779Z,0.70
2018-07-04T14:35:49.339Z,0.80
2018-07-04T14:38:29.816Z,17.63
2018-07-04T14:41:10.630Z,7.10
2018-07-04T14:43:51.296Z,7.40
2018-07-04T14:46:31.990Z,3.70
2018-07-04T14:49:12.612Z,3.70
2018-07-04T14:51:53.139Z,3.87
2018-07-04T14:54:33.813Z,2.90
2018-07-04T14:57:14.475Z,2.13
2018-07-04T14:59:55.278Z,2.77
2018-07-04T15:02:36.030Z,2.63
2018-07-04T15:05:16.617Z,2.37
2018-07-04T15:07:57.185Z,2.50
2018-07-04T15:10:37.857Z,1.87
2018-07-04T15:13:19.439Z,1.30
2018-07-04T15:16:00.811Z,1.50
2018-07-04T15:18:41.784Z,1.37
2018-07-04T15:21:23.065Z,1.27
2018-07-04T15:24:03.569Z,2.00
2018-07-04T15:26:44.438Z,1.10
2018-07-04T15:29:25.194Z,1.13
2018-07-04T15:32:05.844Z,0.90
2018-07-04T15:34:46.305Z,0.90
2018-07-04T15:37:27.035Z,1.10
2018-07-04T15:40:07.770Z,1.10
2018-07-04T15:42:48.352Z,0.83
2018-07-04T15:45:29.330Z,0.77
2018-07-04T15:48:09.923Z,0.90
2018-07-04T15:50:50.807Z,1.20
2018-07-04T15:53:31.612Z,1.07
2018-07-04T15:56:13.515Z,0.90
2018-07-04T15:58:54.498Z,0.80
2018-07-04T16:01:35.356Z,0.80
2018-07-04T16:04:16.813Z,0.97
2018-07-04T16:06:58.083Z,1.30
2018-07-04T16:09:39.009Z,0.80
2018-07-04T16:12:19.730Z,1.43
2018-07-04T16:15:00.453Z,0.93
2018-07-04T16:17:41.313Z,0.83
2018-07-04T16:20:21.972Z,0.63
2018-07-04T16:23:02.883Z,1.10
2018-07-04T16:25:45.174Z,0.90
2018-07-04T16:28:25.960Z,1.00
2018-07-04T16:31:06.643Z,0.80
2018-07-04T16:33:48.312Z,1.87
2018-07-04T16:36:28.982Z,1.17
2018-07-04T16:39:09.773Z,1.07
2018-07-04T16:41:50.442Z,1.40
2018-07-04T16:44:31.412Z,1.40
2018-07-04T16:47:15.458Z,0.77
2018-07-04T16:49:56.071Z,1.30
2018-07-04T16:52:37.062Z,0.80
2018-07-04T16:55:17.715Z,0.97
2018-07-04T16:57:58.597Z,0.90
2018-07-04T17:00:39.185Z,0.70
2018-07-04T17:03:20.181Z,0.77
2018-07-04T17:06:01.072Z,1.00
2018-07-04T17:08:41.568Z,0.97
2018-07-04T17:11:22.533Z,0.70
2018-07-04T17:14:03.327Z,1.20
2018-07-04T17:16:44.228Z,1.00
2018-07-04T17:19:25.075Z,1.00
2018-07-04T17:22:06.842Z,0.97
2018-07-04T17:24:47.415Z,1.00
2018-07-04T17:27:28.125Z,1.10
2018-07-04T17:30:08.874Z,0.90
2018-07-04T17:32:49.850Z,1.10
2018-07-04T17:35:30.856Z,1.40
2018-07-04T17:38:11.510Z,1.00
2018-07-04T17:40:47.468Z,1.43
2018-07-04T17:43:28.849Z,0.80
2018-07-04T17:46:09.701Z,1.13
2018-07-04T17:48:51.211Z,1.40
2018-07-04T17:51:33.200Z,0.97
2018-07-04T17:54:15.066Z,1.27
2018-07-04T17:56:55.969Z,1.23
2018-07-04T17:59:36.957Z,0.80
2018-07-04T18:02:19.628Z,1.10
2018-07-04T18:05:00.894Z,1.00
2018-07-04T18:07:41.934Z,1.37
2018-07-04T18:10:23.379Z,0.80
2018-07-04T18:13:05.492Z,1.07
2018-07-04T18:15:47.497Z,1.07
2018-07-04T18:18:30.109Z,1.00
2018-07-04T18:21:18.214Z,0.80
2018-07-04T18:23:59.314Z,0.93
2018-07-04T18:26:40.996Z,0.90
2018-07-04T18:29:23.014Z,1.00
2018-07-04T18:32:04.183Z,1.30
2018-07-04T18:34:45.296Z,1.00
2018-07-04T18:37:27.550Z,0.87
2018-07-04T18:40:10.295Z,1.20
2018-07-04T18:42:51.328Z,1.00
2018-07-04T18:45:33.118Z,1.13
2018-07-04T18:48:15.829Z,1.53
2018-07-04T18:50:56.754Z,1.33
2018-07-04T18:53:38.617Z,0.83
2018-07-04T18:56:20.147Z,0.90
2018-07-04T18:58:59.881Z,1.90
2018-07-04T19:01:41.093Z,1.60
2018-07-04T19:04:23.011Z,1.50
2018-07-04T19:07:04.926Z,1.30
2018-07-04T19:09:47.524Z,1.27
2018-07-04T19:12:29.900Z,1.10
2018-07-04T19:15:11.202Z,1.37
2018-07-04T19:17:52.141Z,1.20
2018-07-04T19:20:33.856Z,1.33
2018-07-04T19:23:17.038Z,0.80
2018-07-04T19:25:58.729Z,1.20
2018-07-04T19:28:39.483Z,0.80
2018-07-04T19:34:24.967Z,0.83
2018-07-04T19:37:05.839Z,0.80
2018-07-04T19:39:48.057Z,1.10
2018-07-04T19:42:29.169Z,0.73
2018-07-04T19:45:10.357Z,0.90
2018-07-04T19:47:50.972Z,0.90
2018-07-04T19:50:31.839Z,0.80
2018-07-04T19:53:13.647Z,0.77
2018-07-04T19:55:55.033Z,0.80
2018-07-04T19:58:35.837Z,0.87
2018-07-04T20:01:20.704Z,1.00
2018-07-04T20:04:01.565Z,1.10
2018-07-04T20:06:42.167Z,1.00
2018-07-04T20:09:23.848Z,1.00
2018-07-04T20:12:05.070Z,0.83
2018-07-04T20:14:46.699Z,1.00
2018-07-04T20:17:30.367Z,0.87
2018-07-04T20:20:11.498Z,1.00
2018-07-04T20:22:52.996Z,0.90
2018-07-04T20:25:34.439Z,0.77
2018-07-04T20:28:20.436Z,0.83
2018-07-04T20:31:02.411Z,0.90
2018-07-04T20:33:45.221Z,0.77
2018-07-04T20:36:27.974Z,1.10
2018-07-04T20:39:11.763Z,0.80
2018-07-04T20:41:53.176Z,1.03
2018-07-04T20:44:34.126Z,1.07
2018-07-04T20:47:17.614Z,0.90
2018-07-04T20:49:59.226Z,0.90
2018-07-04T20:52:39.877Z,0.73
2018-07-04T20:55:16.522Z,0.80
2018-07-04T20:57:57.137Z,1.13
2018-07-04T21:00:39.011Z,0.80
2018-07-04T21:03:19.756Z,0.80
2018-07-04T21:06:01.307Z,0.90
2018-07-04T21:08:45.605Z,0.70
2018-07-04T21:11:37.307Z,0.80
2018-07-04T21:14:23.777Z,0.90
2018-07-04T21:17:04.507Z,1.33
2018-07-04T21:19:45.227Z,0.93
2018-07-04T21:22:27.607Z,1.00
2018-07-04T21:25:09.258Z,1.10
2018-07-04T21:27:49.852Z,1.00
2018-07-04T21:30:31.197Z,1.10
2018-07-04T21:33:14.120Z,1.00
2018-07-04T21:35:55.034Z,1.00
2018-07-04T21:38:35.610Z,0.90
2018-07-04T21:41:17.970Z,1.03
2018-07-04T21:43:59.410Z,1.00
2018-07-04T21:46:40.216Z,1.47
2018-07-04T21:49:21.899Z,1.27
2018-07-04T21:52:04.453Z,0.93
2018-07-04T21:54:45.437Z,1.40
2018-07-04T21:57:26.545Z,0.93
2018-07-04T22:00:01.403Z,1.10
2018-07-04T22:02:41.909Z,0.90
2018-07-04T22:05:23.191Z,1.03
2018-07-04T22:08:03.957Z,1.10
2018-07-04T22:10:44.507Z,0.80
2018-07-04T22:13:25.683Z,0.87
2018-07-04T22:16:08.070Z,1.37
2018-07-04T22:18:49.893Z,1.00
2018-07-04T22:21:32.441Z,0.87
2018-07-04T22:24:15.501Z,1.03
2018-07-04T22:26:56.783Z,1.10
2018-07-04T22:29:31.323Z,1.67
2018-07-04T22:32:12.334Z,0.90
2018-07-04T22:34:57.068Z,1.20
2018-07-04T22:37:37.727Z,1.80
2018-07-04T22:40:18.649Z,1.20
2018-07-04T22:43:00.352Z,1.50
2018-07-04T22:45:41.209Z,1.07
2018-07-04T22:48:21.801Z,1.30
2018-07-04T22:51:08.614Z,1.40
2018-07-04T22:53:51.796Z,1.27
2018-07-04T22:56:35.895Z,1.40
2018-07-04T22:59:17.682Z,1.23
2018-07-04T23:01:58.475Z,0.93
2018-07-04T23:04:41.667Z,1.10
2018-07-04T23:07:23.949Z,1.20
2018-07-04T23:10:04.820Z,1.50
2018-07-04T23:12:45.997Z,1.50
2018-07-04T23:15:26.765Z,1.20
2018-07-04T23:18:07.706Z,1.00
2018-07-04T23:20:49.453Z,1.40
2018-07-04T23:23:33.485Z,1.80
2018-07-04T23:26:17.974Z,1.20
2018-07-04T23:28:59.343Z,1.37
2018-07-04T23:31:40.046Z,1.30
2018-07-04T23:34:21.937Z,1.47
2018-07-04T23:37:08.679Z,1.60
2018-07-04T23:39:50.633Z,1.20
2018-07-04T23:42:31.576Z,1.60
2018-07-04T23:48:02.319Z,1.50
2018-07-04T23:50:43.817Z,0.90
2018-07-04T23:53:27.887Z,0.90
2018-07-04T23:56:09.007Z,1.30
2018-07-04T23:58:50.057Z,1.40
